EW6196 Weather Reports


time (UTC)temp
C
wind
direction
speed
KPH
gust
KPH
rain 1hr
cm
rain 24hr
cm
rain mn
cm
humidity
%
barometer
mb
20220930152211 15 234 6.4 17.7 0.00 0.00 0.00 60 1021.7
20220930151709 15 273 4.8 14.5 0.00 0.00 0.00 61 1021.7
20220930151439 14 225 6.4 17.7 0.00 0.00 0.00 61 1021.7
20220930150944 13 207 8.0 17.7 0.00 0.00 0.00 62 1021.9
20220930150709 14 188 6.4 17.7 0.00 0.00 0.00 62 1021.8
20220930145939 13 169 6.4 14.5 0.00 0.00 0.00 62 1021.9
20220930145207 13 227 6.4 16.1 0.00 0.00 0.00 62 1021.9
20220930144707 13 229 6.4 17.7 0.00 0.00 0.00 63 1021.9
20220930144437 13 150 6.4 17.7 0.00 0.00 0.00 63 1021.8
20220930143937 13 167 6.4 16.1 0.00 0.00 0.00 64 1021.8
20220930143200 13 239 6.4 16.1 0.00 0.00 0.00 64 1021.8
20220930142654 13 202 6.4 16.1 0.00 0.00 0.00 65 1021.8
20220930142148 12 204 6.4 14.5 0.00 0.00 0.00 66 1021.9
20220930142144 12 190 6.4 20.9 0.00 0.00 0.00 66 1021.8
20220930141407 12 144 6.4 20.9 0.00 0.00 0.00 65 1021.8
20220930140630 12 221 6.4 16.1 0.00 0.00 0.00 65 1021.7
20220930140355 12 139 6.4 12.9 0.00 0.00 0.00 65 1021.8
20220930135619 12 213 6.4 12.9 0.00 0.00 0.00 66 1021.8
20220930135615 12 158 6.4 14.5 0.00 0.00 0.00 67 1021.9
20220930134606 11 165 6.4 14.5 0.00 0.00 0.00 69 1022.0
20220930134101 11 173 4.8 12.9 0.00 0.00 0.00 69 1022.0
20220930133829 11 218 4.8 11.3 0.00 0.00 0.00 71 1022.0
20220930133058 11 164 6.4 14.5 0.00 0.00 0.00 71 1022.0
20220930132604 11 164 4.8 11.3 0.00 0.00 0.00 71 1021.9
20220930132557 11 155 6.4 16.1 0.00 0.00 0.00 71 1021.8
20220930132057 11 156 6.4 16.1 0.00 0.00 0.00 71 1021.8
20220930131327 11 158 3.2 9.7 0.00 0.00 0.00 71 1022.0
20220930130553 11 158 3.2 11.3 0.00 0.00 0.00 71 1021.9
20220930130323 11 157 4.8 11.3 0.00 0.00 0.00 70 1022.2
20220930125552 11 157 4.8 11.3 0.00 0.00 0.00 71 1022.2
20220930125157 11 173 3.2 8.0 0.00 0.00 0.00 71 1022.2
20220930125051 11 156 4.8 11.3 0.00 0.00 0.00 70 1022.3
20220930124821 11 156 4.8 11.3 0.00 0.00 0.00 71 1022.2
20220930123823 11 173 3.2 8.0 0.00 0.00 0.00 71 1022.4
20220930123051 11 173 3.2 8.0 0.00 0.00 0.00 71 1022.2
20220930122551 11 173 1.6 4.8 0.00 0.00 0.00 70 1022.1
20220930122051 11 173 3.2 8.0 0.00 0.00 0.00 70 1022.1
20220930121817 11 173 3.2 9.7 0.00 0.00 0.00 70 1021.9
20220930121046 11 173 3.2 9.7 0.00 0.00 0.00 70 1022.0
20220930120546 11 173 3.2 8.0 0.00 0.00 0.00 70 1022.0
20220930120046 11 173 4.8 8.0 0.00 0.00 0.00 69 1021.9
20220930115551 11 173 4.8 11.3 0.00 0.00 0.00 69 1021.8
20220930115547 11 173 4.8 9.7 0.00 0.00 0.00 69 1021.8
20220930114546 11 173 6.4 11.3 0.00 0.00 0.00 68 1021.7
20220930114046 11 173 4.8 11.3 0.00 0.00 0.00 68 1021.7
20220930113816 11 175 4.8 11.3 0.00 0.00 0.00 68 1021.6
20220930113648 11 174 4.8 11.3 0.00 0.00 0.00 68 1021.7
20220930112546 11 164 4.8 11.3 0.00 0.00 0.00 68 1021.7
20220930112542 11 192 6.4 11.3 0.00 0.00 0.00 68 1021.7
20220930111813 11 205 6.4 12.9 0.00 0.00 0.00 68 1021.6
20220930111043 11 171 4.8 12.9 0.00 0.00 0.00 68 1021.7
20220930110652 11 171 6.4 11.3 0.00 0.00 0.00 68 1021.8
20220930110542 11 184 4.8 9.7 0.00 0.00 0.00 68 1021.7
20220930110314 11 171 6.4 11.3 0.00 0.00 0.00 68 1021.7
20220930105043 11 162 6.4 11.3 0.00 0.00 0.00 68 1021.8
20220930104541 11 169 4.8 11.3 0.00 0.00 0.00 67 1021.7
20220930104311 11 172 4.8 11.3 0.00 0.00 0.00 67 1021.6
20220930103540 11 173 4.8 11.3 0.00 0.00 0.00 67 1021.7
20220930103042 12 175 3.2 6.4 0.00 0.00 0.00 66 1021.7
20220930102541 12 175 3.2 9.7 0.00 0.00 0.00 66 1021.8
20220930102039 12 175 3.2 9.7 0.00 0.00 0.00 66 1021.8
20220930101539 12 175 3.2 6.4 0.00 0.00 0.00 66 1021.7
20220930101038 12 175 3.2 9.7 0.00 0.00 0.00 66 1021.7
20220930100536 12 175 4.8 11.3 0.00 0.00 0.00 66 1021.6
20220930100307 12 175 4.8 12.9 0.00 0.00 0.00 66 1021.5
20220930095536 12 178 4.8 12.9 0.00 0.00 0.00 65 1021.5
20220930095037 12 225 4.8 12.9 0.00 0.00 0.00 65 1021.5
20220930094808 12 157 4.8 12.9 0.00 0.00 0.00 65 1021.3
20220930094533 12 203 3.2 8.0 0.00 0.00 0.00 65 1021.3
20220930094137 12 196 3.2 9.7 0.00 0.00 0.00 65 1021.4
20220930093028 12 203 4.8 12.9 0.00 0.00 0.00 65 1021.3
20220930092759 12 170 4.8 12.9 0.00 0.00 0.00 64 1021.3
20220930092028 12 178 3.2 9.7 0.00 0.00 0.00 64 1021.4
20220930091528 12 171 1.6 8.0 0.00 0.00 0.00 64 1021.4
20220930091028 12 171 1.6 8.0 0.00 0.00 0.00 64 1021.4
20220930090530 12 170 3.2 9.7 0.00 0.00 0.00 63 1021.4
20220930090526 12 171 3.2 8.0 0.00 0.00 0.00 64 1021.4
20220930090024 12 171 3.2 9.7 0.00 0.00 0.00 63 1021.4
20220930085024 12 169 4.8 8.0 0.00 0.00 0.00 63 1021.4
20220930084524 12 169 4.8 11.3 0.00 0.00 0.00 63 1021.4
20220930084027 12 169 4.8 11.3 0.00 0.00 0.00 63 1021.4
20220930083524 12 169 3.2 8.0 0.00 0.00 0.00 63 1021.5
20220930083022 12 180 4.8 8.0 0.00 0.00 0.00 63 1021.4
20220930082754 12 213 4.8 12.9 0.00 0.00 0.00 63 1021.5
20220930082022 12 198 4.8 12.9 0.00 0.00 0.00 63 1021.5
20220930081522 12 161 4.8 12.9 0.00 0.00 0.00 62 1021.5
20220930081022 12 211 6.4 19.3 0.00 0.00 0.00 62 1021.5
20220930080522 12 156 4.8 19.3 0.00 0.00 0.00 61 1021.5
20220930080020 12 223 3.2 8.0 0.00 0.00 0.00 61 1021.9
20220930075752 12 182 3.2 8.0 0.00 0.00 0.00 61 1021.9
20220930075020 12 181 4.8 8.0 0.00 0.00 0.00 61 1021.8
20220930074517 12 186 4.8 12.9 0.00 0.00 0.00 61 1021.4
20220930074018 12 173 4.8 14.5 0.00 0.00 0.00 61 1021.3
20220930073517 12 215 4.8 14.5 0.00 0.00 0.00 61 1021.5
20220930073350 12 196 4.8 14.5 0.00 0.00 0.00 61 1021.7
20220930073247 12 177 4.8 9.7 0.00 0.00 0.00 61 1021.7
20220930072246 12 289 4.8 14.5 0.00 0.00 0.00 60 1021.8
20220930071514 12 237 4.8 14.5 0.00 0.00 0.00 60 1021.7
20220930071014 12 207 4.8 9.7 0.00 0.00 0.00 60 1021.7
20220930070514 12 227 4.8 12.9 0.00 0.00 0.00 60 1021.8
20220930070016 12 170 4.8 11.3 0.00 0.00 0.00 60 1021.9
20220930070012 12 167 4.8 12.9 0.00 0.00 0.00 60 1021.8
20220930065244 12 170 3.2 11.3 0.00 0.00 0.00 60 1022.0
20220930064744 13 205 1.6 6.4 0.00 0.00 0.00 59 1022.1
20220930064012 13 206 1.6 4.8 0.00 0.00 0.00 59 1022.1
20220930063516 13 206 3.2 8.0 0.00 0.00 0.00 58 1022.1
20220930063512 13 206 1.6 6.4 0.00 0.00 0.00 58 1022.3
20220930062510 13 208 3.2 8.0 0.00 0.00 0.00 58 1022.1
20220930062010 13 227 4.8 11.3 0.00 0.00 0.00 57 1022.2
20220930061510 13 190 4.8 12.9 0.00 0.00 0.00 57 1022.1
20220930061246 13 214 4.8 16.1 0.00 0.00 0.00 56 1021.9
20220930061010 13 244 4.8 16.1 0.00 0.00 0.00 57 1022.1
20220930060239 13 225 4.8 9.7 0.00 0.00 0.00 56 1021.9
20220930055505 13 192 4.8 12.9 0.00 0.00 0.00 56 1021.9
20220930055003 13 204 4.8 14.5 0.00 0.00 0.00 56 1021.9
20220930054502 13 219 4.8 14.5 0.00 0.00 0.00 56 1021.8
20220930054002 13 229 4.8 9.7 0.00 0.00 0.00 56 1021.7
20220930053731 13 240 4.8 14.5 0.00 0.00 0.00 56 1021.6
20220930053605 13 193 4.8 14.5 0.00 0.00 0.00 56 1021.6
20220930052500 13 197 4.8 11.3 0.00 0.00 0.00 56 1021.6
20220930051957 13 165 4.8 11.3 0.00 0.00 0.00 56 1021.5
20220930051456 13 174 4.8 12.9 0.00 0.00 0.00 56 1021.5
20220930051226 13 185 6.4 16.1 0.00 0.00 0.00 56 1021.5
20220930050717 13 213 6.4 14.5 0.00 0.00 0.00 55 1021.4
20220930050551 13 240 6.4 16.1 0.00 0.00 0.00 56 1021.4
20220930045438 13 241 6.4 19.3 0.00 0.00 0.00 55 1021.5
20220930045203 13 159 8.0 19.3 0.00 0.00 0.00 55 1021.5
20220930044928 13 171 8.0 16.1 0.00 0.00 0.00 55 1021.5
20220930044150 13 209 8.0 22.5 0.00 0.00 0.00 55 1021.6
20220930043416 13 178 8.0 22.5 0.00 0.00 0.00 55 1021.6
20220930042916 13 183 6.4 19.3 0.00 0.00 0.00 55 1021.7
20220930042647 13 171 6.4 19.3 0.00 0.00 0.00 55 1021.7
20220930041920 13 252 6.4 17.7 0.00 0.00 0.00 54 1021.7
20220930041916 13 159 6.4 17.7 0.00 0.00 0.00 55 1021.6
20220930041521 13 160 6.4 14.5 0.00 0.00 0.00 54 1021.7
20220930041021 14 179 4.8 17.7 0.00 0.00 0.00 53 1021.8
20220930040415 13 215 6.4 17.7 0.00 0.00 0.00 54 1021.8
20220930035414 14 209 4.8 11.3 0.00 0.00 0.00 53 1021.9
20220930035145 14 174 4.8 11.3 0.00 0.00 0.00 53 1021.8
20220930034413 14 189 6.4 12.9 0.00 0.00 0.00 52 1021.9
20220930034142 14 169 6.4 16.1 0.00 0.00 0.00 52 1021.9
20220930033644 14 160 4.8 16.1 0.00 0.00 0.00 51 1021.9
20220930033142 14 209 6.4 12.9 0.00 0.00 0.00 51 1021.9
20220930032411 15 180 6.4 14.5 0.00 0.00 0.00 51 1021.8
20220930031912 15 158 6.4 14.5 0.00 0.00 0.00 50 1021.8
20220930031409 15 194 6.4 14.5 0.00 0.00 0.00 50 1021.9
20220930031140 15 179 4.8 16.1 0.00 0.00 0.00 49 1021.8
20220930030640 15 167 4.8 16.1 0.00 0.00 0.00 49 1021.8
20220930030141 15 215 6.4 17.7 0.00 0.00 0.00 48 1021.8
20220930025640 15 229 6.4 17.7 0.00 0.00 0.00 48 1021.8
20220930024910 15 179 4.8 16.1 0.00 0.00 0.00 47 1021.7
20220930024640 15 201 4.8 14.5 0.00 0.00 0.00 47 1021.7
20220930024515 15 191 4.8 14.5 0.00 0.00 0.00 46 1021.8
20220930023640 16 173 4.8 14.5 0.00 0.00 0.00 46 1021.8
20220930022909 16 228 6.4 14.5 0.00 0.00 0.00 45 1021.7
20220930022409 16 212 6.4 17.7 0.00 0.00 0.00 45 1021.6
20220930022141 16 229 6.4 17.7 0.00 0.00 0.00 45 1021.6
20220930021410 16 263 4.8 12.9 0.00 0.00 0.00 45 1021.5
20220930021144 16 202 4.8 9.7 0.00 0.00 0.00 44 1021.5
20220930020909 16 177 4.8 12.9 0.00 0.00 0.00 45 1021.5
20220930020746 16 202 4.8 9.7 0.00 0.00 0.00 44 1021.5
20220930015640 16 224 4.8 11.3 0.00 0.00 0.00 44 1021.5
20220930014909 16 202 4.8 11.3 0.00 0.00 0.00 44 1021.4
20220930014409 16 170 4.8 14.5 0.00 0.00 0.00 44 1021.3
20220930014140 16 165 4.8 14.5 0.00 0.00 0.00 43 1021.3
20220930013409 16 171 4.8 12.9 0.00 0.00 0.00 43 1021.3
20220930012909 16 244 6.4 12.9 0.00 0.00 0.00 43 1021.3
20220930012408 17 219 4.8 12.9 0.00 0.00 0.00 43 1021.3
20220930011907 17 179 4.8 12.9 0.00 0.00 0.00 42 1021.4
20220930011407 17 257 4.8 11.3 0.00 0.00 0.00 42 1021.4
20220930010907 17 225 4.8 14.5 0.00 0.00 0.00 42 1021.4
20220930010638 17 182 6.4 16.1 0.00 0.00 0.00 42 1021.3
20220930005900 17 249 6.4 16.1 0.00 0.00 0.00 41 1021.3
20220930005353 17 200 4.8 12.9 0.00 0.00 0.00 41 1021.3
20220930005119 17 197 4.8 14.5 0.00 0.00 0.00 41 1021.3
20220930004342 17 197 6.4 14.5 0.00 0.00 0.00 41 1021.3
20220930003836 17 156 6.4 14.5 0.00 0.00 0.00 41 1021.3
20220930003329 17 172 6.4 17.7 0.00 0.00 0.00 41 1021.3
20220930002824 17 195 6.4 17.7 0.00 0.00 0.00 41 1021.3
20220930002415 18 169 6.4 14.5 0.00 0.00 0.00 40 1021.4
20220930002318 18 192 6.4 17.7 0.00 0.00 0.00 41 1021.3
20220930002039 18 181 8.0 14.5 0.00 0.00 0.00 40 1021.4
20220930000759 18 171 6.4 12.9 0.00 0.00 0.00 40 1021.4
20220930000254 18 189 6.4 14.5 0.00 0.00 0.00 39 1021.4
20220929235753 18 166 6.4 14.5 0.00 0.00 0.00 38 1021.5
20220929235251 18 168 4.8 11.3 0.00 0.00 0.00 38 1021.6
20220929235020 18 176 3.2 11.3 0.00 0.00 0.00 37 1021.7
20220929234249 19 153 3.2 11.3 0.00 0.00 0.00 37 1021.7
20220929233749 19 202 4.8 11.3 0.00 0.00 0.00 37 1021.7
20220929233248 19 215 3.2 17.7 0.00 0.00 0.00 36 1021.7
20220929232748 19 151 4.8 17.7 0.00 0.00 0.00 36 1021.8
20220929232246 19 234 4.8 16.1 0.00 0.00 0.00 35 1021.8
20220929231746 20 146 3.2 14.5 0.00 0.00 0.00 35 1021.9
20220929231247 20 181 3.2 12.9 0.00 0.00 0.00 34 1021.9
20220929230746 20 215 4.8 14.5 0.00 0.00 0.00 33 1022.0
20220929230246 20 240 6.4 17.7 0.00 0.00 0.00 33 1022.0
20220929225747 20 225 3.2 17.7 0.00 0.00 0.00 32 1022.0
20220929225246 20 226 4.8 17.7 0.00 0.00 0.00 32 1022.1
20220929225018 20 154 6.4 17.7 0.00 0.00 0.00 32 1022.1
20220929224246 20 155 8.0 17.7 0.00 0.00 0.00 31 1022.1
20220929223739 20 202 8.0 22.5 0.00 0.00 0.00 30 1022.2
20220929223233 21 161 4.8 22.5 0.00 0.00 0.00 29 1022.3
20220929222726 21 217 4.8 17.7 0.00 0.00 0.00 30 1022.3
20220929222220 21 250 6.4 19.3 0.00 0.00 0.00 29 1022.4
20220929222216 21 153 6.4 19.3 0.00 0.00 0.00 29 1022.4
20220929221439 21 144 6.4 19.3 0.00 0.00 0.00 29 1022.5
20220929220702 21 301 6.4 17.7 0.00 0.00 0.00 30 1022.6
20220929220427 21 282 8.0 19.3 0.00 0.00 0.00 29 1022.7
20220929215651 21 190 6.4 19.3 0.00 0.00 0.00 30 1022.7
20220929215145 21 222 8.0 19.3 0.00 0.00 0.00 29 1022.8
20220929214639 21 229 6.4 19.3 0.00 0.00 0.00 29 1023.0
20220929214403 21 226 6.4 19.3 0.00 0.00 0.00 30 1022.8
20220929213855 21 188 8.0 25.7 0.00 0.00 0.00 30 1023.1
20220929213727 21 173 8.0 25.7 0.00 0.00 0.00 30 1023.0
20220929212615 21 150 9.7 22.5 0.00 0.00 0.00 30 1023.0
20220929212115 21 125 9.7 22.5 0.00 0.00 0.00 29 1023.0
20220929211615 21 190 8.0 27.4 0.00 0.00 0.00 29 1023.1
20220929211345 21 193 8.0 27.4 0.00 0.00 0.00 29 1023.2
20220929210845 21 240 8.0 20.9 0.00 0.00 0.00 29 1023.1
20220929210112 21 220 9.7 25.7 0.00 0.00 0.00 30 1023.2
20220929205845 21 236 9.7 25.7 0.00 0.00 0.00 29 1023.2
20220929205117 21 194 4.8 14.5 0.00 0.00 0.00 29 1023.3
20220929205113 21 221 8.0 17.7 0.00 0.00 0.00 28 1023.2
20220929204111 21 204 6.4 20.9 0.00 0.00 0.00 31 1023.3
20220929203611 20 134 9.7 20.9 0.00 0.00 0.00 31 1023.4
20220929203111 20 134 9.7 20.9 0.00 0.00 0.00 31 1023.5
20220929202610 20 226 9.7 25.7 0.00 0.00 0.00 32 1023.5
20220929202110 20 166 6.4 25.7 0.00 0.00 0.00 32 1023.6
20220929201843 20 290 6.4 17.7 0.00 0.00 0.00 33 1023.6
20220929201111 20 167 8.0 19.3 0.00 0.00 0.00 32 1023.7
20220929200611 20 217 6.4 19.3 0.00 0.00 0.00 33 1023.7
20220929200112 20 175 8.0 17.7 0.00 0.00 0.00 33 1023.8
20220929195611 20 217 8.0 27.4 0.00 0.00 0.00 32 1023.8
20220929195111 20 223 8.0 27.4 0.00 0.00 0.00 32 1023.9
20220929194609 20 192 6.4 24.1 0.00 0.00 0.00 33 1024.0
20220929194343 19 209 6.4 22.5 0.00 0.00 0.00 36 1024.1
20220929194108 19 199 8.0 22.5 0.00 0.00 0.00 36 1024.0
20220929193108 19 133 6.4 20.9 0.00 0.00 0.00 36 1024.2
20220929192609 19 185 8.0 17.7 0.00 0.00 0.00 35 1024.2
20220929192340 19 218 6.4 16.1 0.00 0.00 0.00 34 1024.3
20220929192223 19 231 8.0 22.5 0.00 0.00 0.00 35 1024.4
20220929191112 19 167 6.4 20.9 0.00 0.00 0.00 36 1024.5
20220929191107 19 283 8.0 22.5 0.00 0.00 0.00 34 1024.4
20220929190337 19 182 6.4 20.9 0.00 0.00 0.00 37 1024.5
20220929185604 19 215 8.0 20.9 0.00 0.00 0.00 37 1024.5
20220929185105 19 239 4.8 19.3 0.00 0.00 0.00 37 1024.6
20220929184605 19 216 3.2 19.3 0.00 0.00 0.00 38 1024.7
20220929184103 18 195 3.2 19.3 0.00 0.00 0.00 37 1024.9
20220929183833 18 232 4.8 22.5 0.00 0.00 0.00 38 1025.1
20220929183103 18 188 8.0 24.1 0.00 0.00 0.00 41 1025.2
20220929182607 18 225 6.4 27.4 0.00 0.00 0.00 39 1025.4
20220929182603 18 141 8.0 27.4 0.00 0.00 0.00 39 1025.2
20220929181602 18 176 4.8 19.3 0.00 0.00 0.00 41 1025.4
20220929181333 18 168 6.4 16.1 0.00 0.00 0.00 41 1025.5
20220929180834 18 248 8.0 16.1 0.00 0.00 0.00 42 1025.4
20220929180103 18 154 8.0 19.3 0.00 0.00 0.00 42 1025.4
20220929175603 17 188 9.7 19.3 0.00 0.00 0.00 43 1025.5
20220929175333 17 203 9.7 24.1 0.00 0.00 0.00 43 1025.6
20220929175212 17 230 11.3 29.0 0.00 0.00 0.00 43 1025.7
20220929175208 17 211 9.7 24.1 0.00 0.00 0.00 43 1025.6
20220929173833 17 298 11.3 29.0 0.00 0.00 0.00 43 1025.8
20220929173329 17 222 11.3 25.7 0.00 0.00 0.00 44 1025.9
20220929172559 17 235 11.3 27.4 0.00 0.00 0.00 44 1025.9
20220929172059 17 142 9.7 27.4 0.00 0.00 0.00 44 1026.0
20220929171829 17 288 8.0 19.3 0.00 0.00 0.00 45 1026.0
20220929171059 17 245 8.0 19.3 0.00 0.00 0.00 46 1026.1
20220929170829 16 238 8.0 22.5 0.00 0.00 0.00 47 1026.2
20220929170058 16 5 9.7 22.5 0.00 0.00 0.00 48 1026.3
20220929165558 16 248 11.3 27.4 0.00 0.00 0.00 48 1026.4
20220929165059 16 237 11.3 27.4 0.00 0.00 0.00 48 1026.5
20220929164555 16 167 8.0 25.7 0.00 0.00 0.00 48 1026.6
20220929164055 16 199 6.4 16.1 0.00 0.00 0.00 49 1026.6
20220929163825 15 162 8.0 20.9 0.00 0.00 0.00 50 1026.8
20220929163054 15 181 9.7 20.9 0.00 0.00 0.00 49 1026.9
20220929162554 15 218 6.4 20.9 0.00 0.00 0.00 50 1026.9
20220929162056 15 138 6.4 17.7 0.00 0.00 0.00 51 1027.1
20220929161555 15 192 6.4 17.7 0.00 0.00 0.00 51 1027.1
20220929161327 15 236 6.4 16.1 0.00 0.00 0.00 52 1027.3
20220929160556 15 194 6.4 16.1 0.00 0.00 0.00 52 1027.4
20220929160049 14 209 6.4 16.1 0.00 0.00 0.00 53 1027.4
20220929155543 14 227 6.4 14.5 0.00 0.00 0.00 53 1027.5
20220929155038 13 207 6.4 16.1 0.00 0.00 0.00 54 1027.5
20220929154532 13 184 6.4 19.3 0.00 0.00 0.00 54 1027.6
20220929154031 13 232 6.4 19.3 0.00 0.00 0.00 55 1027.6
20220929153531 13 236 8.0 19.3 0.00 0.00 0.00 56 1027.7
20220929153302 12 205 9.7 19.3 0.00 0.00 0.00 56 1027.8